Flight Track Log - Related Links

Times and Time Zones

All times are in EDT time to prevent confusion due to time zone crossing. See the N549PA flight status page for this flight to view local times or setup timezone preferences in your user account.

Time Position Orientation Groundspeed Altitude Reporting Facility
EDT Latitude Longitude Course Direction KTS MPH feet Rate Location/Type
Fri 01:35:54 PM 36.9803 -76.2550 13° North 241 277 2,600  Level Washington Center
Fri 01:36:48 PM 36.9781 -76.3172 267° West 272 313 4,100 2,250 Climbing Washington Center
Fri 01:37:46 PM 36.9481 -76.4028 246° West 272 313 6,800 2,949 Climbing Washington Center
Fri 01:38:46 PM 36.9206 -76.4908 249° West 272 313 9,900 2,926 Climbing Washington Center
Fri 01:39:47 PM 36.8947 -76.5761 249° West 272 313 12,700 2,459 Climbing Washington Center
Fri 01:40:48 PM 36.8669 -76.6667 249° West 272 313 14,900 2,331 Climbing Washington Center
Fri 01:41:48 PM 36.8222 -76.7569 238° Southwest 284 327 17,400 2,542 Climbing Washington Center
Fri 01:42:46 PM 36.7817 -76.8497 241° Southwest 299 344 19,900 2,288 Climbing Washington Center
Fri 01:43:46 PM 36.7347 -76.9475 239° Southwest 318 366 21,900 1,934 Climbing Washington Center
Fri 01:44:47 PM 36.6875 -77.0475 240° Southwest 332 382 23,800 1,820 Climbing Washington Center
Fri 01:45:48 PM 36.6383 -77.1503 239° Southwest 337 388 25,600 1,866 Climbing Washington Center
Fri 01:46:46 PM 36.5889 -77.2606 241° Southwest 348 400 27,500 5,244 Climbing Washington Center
Fri 01:47:47 PM 36.5414 -77.3656 241° Southwest 355 409 36,000 4,250 Climbing Washington Center
Fri 01:48:46 PM 36.4939 -77.4728 241° Southwest 355 409 36,000 -2,067 Level Washington Center
Fri 01:49:46 PM 36.4400 -77.5800 238° Southwest 355 409 31,900 -1,190 Descending Washington Center
Fri 01:50:47 PM 36.3922 -77.6897 242° Southwest 355 409 33,600 1,033 Climbing Washington Center
Fri 01:51:48 PM 36.3403 -77.7992 240° Southwest 360 414 34,000 202 Climbing Washington Center
Fri 01:52:46 PM 36.2817 -77.9161 238° Southwest 381 438 34,000 101 Level Washington Center
Fri 01:53:47 PM 36.2272 -78.0356 241° Southwest 393 452 34,200 645 Climbing Washington Center
Fri 01:54:47 PM 36.1767 -78.1522 242° Southwest 398 458 35,300 793 Climbing Washington Center
Fri 01:55:48 PM 36.1219 -78.2689 240° Southwest 398 458 35,800 353 Climbing Washington Center
Fri 01:56:46 PM 36.0650 -78.3878 239° Southwest 398 458 36,000 101 Climbing Washington Center
Fri 01:57:47 PM 36.0058 -78.5064 238° Southwest 403 464 36,000  Level Washington Center
Fri 01:58:48 PM 35.9444 -78.6297 238° Southwest 409 471 36,000  Level Washington Center
Fri 01:59:46 PM 35.8847 -78.7581 240° Southwest 421 484 36,000  Level Washington Center
Fri 02:00:47 PM 35.8086 -78.8678 229° Southwest 426 490 36,000  Level Washington Center
Fri 02:01:47 PM 35.7161 -78.9689 222° Southwest 432 497 36,000  Level Washington Center
Fri 02:02:48 PM 35.6258 -79.0672 222° Southwest 432 497 36,000  Level Washington Center
Fri 02:03:46 PM 35.5308 -79.1756 223° Southwest 434 499 36,000  Level Washington Center
Fri 02:04:47 PM 35.4400 -79.2758 222° Southwest 428 493 36,000  Level Washington Center
Fri 02:05:47 PM 35.3511 -79.3789 223° Southwest 433 498 36,000  Level Washington Center
Fri 02:06:48 PM 35.2778 -79.4594 222° Southwest 442 509 36,000  Level Washington Center
Fri 02:07:46 PM 35.1736 -79.5814 224° Southwest 442 509 36,000  Level Washington Center
Fri 02:08:47 PM 35.0867 -79.6786 222° Southwest 432 497 36,000  Level Washington Center
Fri 02:10:39 PM 34.9267 -79.8669 224° Southwest 422 486 36,000  Level Jacksonville Center
Fri 02:11:39 PM 34.8414 -79.9661 224° Southwest 422 486 36,000  Level Jacksonville Center
Fri 02:12:39 PM 34.7703 -80.0519 225° Southwest 415 478 36,000  Level Jacksonville Center
Fri 02:13:39 PM 34.6850 -80.1558 225° Southwest 415 478 36,000  Level Jacksonville Center
Fri 02:14:39 PM 34.5994 -80.2517 223° Southwest 421 484 36,000  Level Jacksonville Center
Fri 02:15:39 PM 34.5097 -80.3478 221° Southwest 428 493 36,000  Level Jacksonville Center
Fri 02:16:39 PM 34.4219 -80.4458 223° Southwest 434 499 36,000 -450 Level Jacksonville Center
Fri 02:17:39 PM 34.3342 -80.5414 222° Southwest 439 505 35,100 -500 Descending Jacksonville Center
Fri 02:18:39 PM 34.2461 -80.6367 222° Southwest 433 498 35,000 -50 Descending Jacksonville Center
Fri 02:19:39 PM 34.1600 -80.7294 222° Southwest 428 493 35,000 -350 Level Jacksonville Center
Fri 02:20:39 PM 34.0717 -80.8167 219° Southwest 423 487 34,300 -450 Descending Jacksonville Center
Fri 02:21:39 PM 33.9814 -80.9067 220° Southwest 423 487 34,100 -150 Descending Jacksonville Center
Fri 02:22:39 PM 33.8975 -81.0036 224° Southwest 429 494 34,000 -50 Descending Jacksonville Center
Fri 02:23:39 PM 33.8678 -81.1267 254° West 391 450 34,000  Level Jacksonville Center
Fri 02:24:39 PM 33.8739 -81.2642 273° West 386 444 34,000  Level Jacksonville Center
Fri 02:25:39 PM 33.8839 -81.3967 275° West 399 459 34,000  Level Jacksonville Center
Fri 02:26:39 PM 33.8894 -81.5317 273° West 399 459 34,000  Level Jacksonville Center
Fri 02:28:50 PM 33.9142 -81.8208 276° West 398 458 34,000  Level Atlanta Center
Fri 02:29:50 PM 33.9331 -81.9558 280° West 403 464 34,000 200 Level Atlanta Center
Fri 02:30:50 PM 33.9519 -82.0881 280° West 408 470 34,400 800 Climbing Atlanta Center
Fri 02:31:50 PM 33.9728 -82.2178 281° West 408 470 35,600 800 Climbing Atlanta Center
Fri 02:32:50 PM 33.9831 -82.3578 275° West 413 475 36,000 750 Climbing Atlanta Center
Fri 02:33:50 PM 34.0017 -82.4953 279° West 419 482 37,100 1,000 Climbing Atlanta Center
Fri 02:34:50 PM 34.0178 -82.6278 278° West 419 482 38,000 450 Climbing Atlanta Center
Fri 02:35:50 PM 34.0319 -82.7678 277° West 419 482 38,000 -500 Level Atlanta Center
Fri 02:36:50 PM 34.0436 -82.9106 276° West 424 488 37,000 -1,150 Descending Atlanta Center
Fri 02:37:50 PM 34.0594 -83.0583 277° West 430 495 35,700 -1,600 Descending Atlanta Center
Fri 02:38:50 PM 34.0772 -83.1936 279° West 425 489 33,800 -2,200 Descending Atlanta Center
Fri 02:39:50 PM 34.0989 -83.3264 281° West 413 475 31,300 -1,950 Descending Atlanta Center
Fri 02:40:50 PM 34.1183 -83.4467 281° West 397 457 29,900 -1,250 Descending Atlanta Center
Fri 02:41:50 PM 34.1419 -83.5594 284° West 371 427 28,800 -1,650 Descending Atlanta Center
Fri 02:42:50 PM 34.1631 -83.6797 282° West 357 411 26,600 -1,900 Descending Atlanta Center
Fri 02:43:50 PM 34.1803 -83.8028 280° West 362 417 25,000 -1,650 Descending Atlanta Center
Fri 02:44:50 PM 34.1992 -83.9308 280° West 375 432 23,300 -1,450 Descending Atlanta Center
Fri 02:45:50 PM 34.2325 -84.0489 289° West 375 432 22,100 -1,100 Descending Atlanta Center
Fri 02:46:50 PM 34.2806 -84.1544 299° West 364 419 21,100 -750 Descending Atlanta Center
Fri 02:47:50 PM 34.3242 -84.2550 298° West 353 406 20,600 -550 Descending Atlanta Center
Fri 02:48:50 PM 34.3636 -84.3558 295° West 342 394 20,000 -600 Descending Atlanta Center
Fri 02:49:50 PM 34.4072 -84.4592 297° West 342 394 19,400 -900 Descending Atlanta Center
Fri 02:50:50 PM 34.4464 -84.5628 295° West 342 394 18,200 -2,200 Descending Atlanta Center
Fri 02:51:50 PM 34.4836 -84.6664 294° West 342 394 15,000 -3,000 Descending Atlanta Center
Fri 02:52:50 PM 34.5164 -84.7647 292° West 331 381 12,200 -1,950 Descending Atlanta Center
Fri 02:53:50 PM 34.5492 -84.8483 295° West 305 351 11,100 -1,350 Descending Atlanta Center
Fri 02:54:50 PM 34.5758 -84.9369 290° West 264 304 9,500 -2,150 Descending Atlanta Center
Fri 02:55:50 PM 34.5939 -85.0228 284° West 259 298 6,800 -2,100 Descending Atlanta Center
Fri 02:56:50 PM 34.5414 -85.0500 203° Southwest 180 207 5,300 -1,250 Descending Atlanta Center
Fri 02:57:50 PM 34.4856 -84.9964 142° Southeast 164 189 4,300 -600 Descending Atlanta Center
Fri 02:58:50 PM 34.4233 -84.9428 145° Southeast 218 251 4,100 -300 Descending Atlanta Center
Fri 02:59:50 PM 34.3672 -84.8944 145° Southeast 237 273 3,700 -250 Descending Atlanta Center
Fri 03:00:50 PM 34.3114 -84.8486 146° Southeast 242 278 3,600 -100 Descending Atlanta Center

Login

Don't have an account? Register now (free) for customized features, flight alerts, and more!